createdAt,value
2023-02-26T00:00:12.084Z,343.12
2023-02-26T00:01:15.067Z,187.26
2023-02-26T00:02:11.213Z,493.20
2023-02-26T00:03:11.094Z,97.28
2023-02-26T00:04:11.074Z,31.32
2023-02-26T00:05:11.062Z,39.18
2023-02-26T00:06:11.074Z,21.86
2023-02-26T00:07:11.069Z,20.40
2023-02-26T00:08:11.092Z,76.30
2023-02-26T00:09:11.067Z,128.88
2023-02-26T00:10:11.079Z,163.16
2023-02-26T00:11:11.083Z,228.54
2023-02-26T00:12:14.069Z,62.24
2023-02-26T00:13:11.094Z,20.08
2023-02-26T00:14:13.064Z,24.04
2023-02-26T00:15:11.069Z,23.94
2023-02-26T00:16:19.164Z,22.70
2023-02-26T00:17:19.206Z,11.56
2023-02-26T00:18:14.064Z,11.10
2023-02-26T00:19:13.067Z,13.44
2023-02-26T00:20:11.068Z,11.52
2023-02-26T00:21:15.076Z,12.98
2023-02-26T00:22:11.070Z,6.74
2023-02-26T00:23:13.077Z,14.16
2023-02-26T00:24:11.075Z,9.06
2023-02-26T00:25:11.073Z,7.64
2023-02-26T00:26:11.084Z,11.90
2023-02-26T00:27:12.090Z,8.24
2023-02-26T00:28:11.063Z,7.78
2023-02-26T00:29:11.082Z,13.62
2023-02-26T00:30:11.074Z,13.40
2023-02-26T00:31:11.241Z,12.02
2023-02-26T00:32:11.215Z,11.84
2023-02-26T00:33:11.076Z,12.28
2023-02-26T00:34:13.074Z,9.42
2023-02-26T00:35:13.076Z,10.56
2023-02-26T00:36:21.070Z,10.92
2023-02-26T00:37:21.067Z,12.84
2023-02-26T00:38:16.070Z,14.76
2023-02-26T00:39:19.073Z,12.00
2023-02-26T00:40:19.083Z,11.88
2023-02-26T00:41:12.140Z,7.38
2023-02-26T00:42:11.069Z,13.88
2023-02-26T00:43:14.076Z,8.70
2023-02-26T00:44:11.069Z,9.50
2023-02-26T00:45:11.067Z,14.74
2023-02-26T00:46:21.186Z,11.64
2023-02-26T00:47:21.082Z,14.00
2023-02-26T00:48:19.071Z,9.12
2023-02-26T00:49:21.078Z,12.22
2023-02-26T00:50:22.073Z,10.50
2023-02-26T00:51:23.073Z,9.02
2023-02-26T00:52:18.069Z,12.14
2023-02-26T00:53:21.090Z,12.26
2023-02-26T00:54:21.087Z,6.18
2023-02-26T00:55:11.101Z,13.82
2023-02-26T00:56:11.069Z,17.62
2023-02-26T00:57:11.082Z,5.26
2023-02-26T00:58:11.073Z,10.76
2023-02-26T00:59:11.069Z,10.64
2023-02-26T01:00:11.112Z,7.40
2023-02-26T01:01:11.112Z,18.08
2023-02-26T01:02:11.063Z,13.56
2023-02-26T01:03:11.060Z,11.24
2023-02-26T01:04:11.163Z,15.28
2023-02-26T01:05:11.069Z,9.88
2023-02-26T01:06:18.063Z,8.42
2023-02-26T01:07:11.068Z,9.04
2023-02-26T01:08:21.073Z,6.74
2023-02-26T01:09:19.063Z,9.44
2023-02-26T01:10:11.074Z,10.70
2023-02-26T01:11:11.061Z,17.58
2023-02-26T01:12:12.059Z,13.36
2023-02-26T01:13:11.061Z,18.32
2023-02-26T01:14:11.067Z,8.56
2023-02-26T01:15:11.066Z,11.88
2023-02-26T01:16:16.138Z,6.88
2023-02-26T01:17:17.061Z,14.42
2023-02-26T01:18:18.100Z,7.92
2023-02-26T01:19:19.056Z,14.64
2023-02-26T01:20:18.058Z,12.28
2023-02-26T01:21:14.066Z,10.28
2023-02-26T01:22:17.093Z,7.42
2023-02-26T01:23:16.074Z,10.32
2023-02-26T01:24:13.060Z,6.42
2023-02-26T01:25:18.059Z,11.64
2023-02-26T01:26:18.067Z,11.74
2023-02-26T01:27:11.058Z,11.84
2023-02-26T01:28:11.061Z,10.50
2023-02-26T01:29:11.061Z,15.86
2023-02-26T01:30:11.066Z,9.08
2023-02-26T01:31:21.232Z,16.04
2023-02-26T01:32:19.159Z,12.78
2023-02-26T01:33:21.071Z,6.20
2023-02-26T01:34:19.061Z,9.78
2023-02-26T01:35:19.062Z,8.62
2023-02-26T01:36:20.069Z,8.46
2023-02-26T01:37:19.063Z,28.48
2023-02-26T01:38:19.064Z,17.06
2023-02-26T01:39:18.062Z,11.54
2023-02-26T01:40:21.062Z,9.78
2023-02-26T01:41:21.074Z,12.92
2023-02-26T01:42:19.068Z,9.66
2023-02-26T01:43:18.063Z,9.14
2023-02-26T01:44:19.061Z,11.46
2023-02-26T01:45:17.065Z,7.16
2023-02-26T01:46:18.167Z,13.90
2023-02-26T01:47:17.068Z,12.50
2023-02-26T01:48:21.066Z,13.38
2023-02-26T01:49:15.065Z,8.10
2023-02-26T01:50:16.079Z,9.96
2023-02-26T01:51:11.075Z,10.68
2023-02-26T01:52:19.065Z,10.32
2023-02-26T01:53:16.081Z,11.90
2023-02-26T01:54:11.065Z,11.24
2023-02-26T01:55:11.069Z,9.48
2023-02-26T01:56:19.070Z,8.88
2023-02-26T01:57:16.074Z,7.42
2023-02-26T01:58:11.076Z,10.72
2023-02-26T01:59:11.075Z,13.04
2023-02-26T02:00:11.078Z,9.68
2023-02-26T02:01:11.084Z,12.12
2023-02-26T02:02:11.157Z,17.14
2023-02-26T02:03:11.243Z,9.12
2023-02-26T02:04:14.074Z,13.62
2023-02-26T02:05:21.066Z,12.90
2023-02-26T02:06:18.079Z,16.44
2023-02-26T02:07:11.089Z,14.02
2023-02-26T02:08:11.075Z,12.08
2023-02-26T02:09:11.094Z,9.16
2023-02-26T02:10:11.069Z,11.82
2023-02-26T02:11:11.072Z,16.76
2023-02-26T02:12:17.064Z,7.16
2023-02-26T02:13:21.076Z,11.36
2023-02-26T02:14:21.068Z,13.74
2023-02-26T02:15:21.084Z,11.42
2023-02-26T02:16:20.105Z,14.16
2023-02-26T02:17:19.061Z,10.76
2023-02-26T02:18:20.061Z,7.06
2023-02-26T02:19:19.074Z,9.46
2023-02-26T02:20:19.085Z,13.40
2023-02-26T02:21:19.067Z,7.08
2023-02-26T02:22:19.068Z,6.24
2023-02-26T02:23:19.062Z,8.38
2023-02-26T02:24:19.071Z,10.56
2023-02-26T02:25:21.064Z,9.22
2023-02-26T02:26:19.064Z,13.54
2023-02-26T02:27:19.062Z,10.92
2023-02-26T02:28:21.064Z,11.96
2023-02-26T02:29:19.064Z,13.38
2023-02-26T02:30:23.062Z,7.68
2023-02-26T02:31:20.191Z,11.62
2023-02-26T02:32:11.316Z,8.76
2023-02-26T02:33:17.064Z,13.10
2023-02-26T02:34:19.062Z,13.16
2023-02-26T02:35:21.064Z,18.88
2023-02-26T02:36:17.059Z,12.06
2023-02-26T02:37:19.062Z,8.76
2023-02-26T02:38:20.069Z,19.86
2023-02-26T02:39:19.076Z,10.26
2023-02-26T02:40:15.062Z,12.32
2023-02-26T02:41:19.061Z,12.02
2023-02-26T02:42:19.063Z,7.02
2023-02-26T02:43:15.059Z,8.74
2023-02-26T02:44:14.063Z,8.00
2023-02-26T02:45:19.061Z,14.10
2023-02-26T02:46:14.269Z,10.50
2023-02-26T02:47:11.069Z,13.60
2023-02-26T02:48:19.063Z,17.48
2023-02-26T02:49:21.062Z,9.52
2023-02-26T02:50:18.069Z,9.06
2023-02-26T02:51:15.068Z,16.84
2023-02-26T02:52:17.066Z,16.64
2023-02-26T02:53:18.065Z,9.30
2023-02-26T02:54:18.066Z,14.72
2023-02-26T02:55:21.069Z,10.08
2023-02-26T02:56:20.075Z,6.48
2023-02-26T02:57:15.064Z,13.92
2023-02-26T02:58:17.063Z,8.08
2023-02-26T02:59:19.064Z,8.16
2023-02-26T03:00:12.069Z,9.76
2023-02-26T03:01:14.117Z,5.64
2023-02-26T03:02:19.122Z,14.88
2023-02-26T03:03:20.066Z,9.84
2023-02-26T03:04:13.068Z,11.54
2023-02-26T03:05:11.066Z,11.16
2023-02-26T03:06:11.068Z,9.40
2023-02-26T03:07:11.074Z,8.88
2023-02-26T03:08:15.070Z,11.26
2023-02-26T03:09:11.107Z,7.40
2023-02-26T03:10:11.068Z,5.96
2023-02-26T03:11:11.066Z,7.78
2023-02-26T03:12:11.073Z,12.44
2023-02-26T03:13:19.075Z,8.78
2023-02-26T03:14:11.085Z,12.06
2023-02-26T03:15:11.065Z,6.30
2023-02-26T03:16:21.093Z,16.04
2023-02-26T03:17:19.075Z,14.26
2023-02-26T03:18:19.068Z,11.96
2023-02-26T03:19:19.067Z,14.06
2023-02-26T03:20:19.073Z,9.92
2023-02-26T03:21:19.072Z,9.24
2023-02-26T03:22:19.070Z,8.36
2023-02-26T03:23:19.068Z,14.68
2023-02-26T03:24:19.072Z,16.18
2023-02-26T03:25:22.071Z,11.92
2023-02-26T03:26:18.072Z,11.66
2023-02-26T03:27:19.074Z,11.30
2023-02-26T03:28:19.073Z,5.74
2023-02-26T03:29:19.075Z,15.40
2023-02-26T03:30:21.072Z,11.60
2023-02-26T03:31:19.265Z,19.06
2023-02-26T03:32:18.182Z,18.30
2023-02-26T03:33:19.069Z,9.76
2023-02-26T03:34:19.078Z,10.16
2023-02-26T03:35:20.081Z,8.04
2023-02-26T03:36:17.081Z,11.88
2023-02-26T03:37:18.099Z,11.38
2023-02-26T03:38:16.073Z,9.60
2023-02-26T03:39:18.081Z,8.96
2023-02-26T03:40:15.083Z,14.12
2023-02-26T03:41:19.084Z,10.84
2023-02-26T03:42:17.072Z,10.04
2023-02-26T03:43:22.079Z,9.28
2023-02-26T03:44:15.076Z,13.14
2023-02-26T03:45:16.082Z,9.64
2023-02-26T03:46:14.075Z,8.62
2023-02-26T03:47:13.078Z,15.52
2023-02-26T03:48:14.075Z,7.40
2023-02-26T03:49:14.107Z,11.20
2023-02-26T03:50:21.081Z,14.34
2023-02-26T03:51:12.075Z,13.84
2023-02-26T03:52:11.079Z,17.68
2023-02-26T03:53:15.074Z,8.66
2023-02-26T03:54:16.076Z,11.30
2023-02-26T03:55:15.076Z,8.98
2023-02-26T03:56:19.072Z,8.24
2023-02-26T03:57:11.070Z,7.20
2023-02-26T03:58:11.077Z,9.04
2023-02-26T03:59:11.078Z,15.18
2023-02-26T04:00:11.072Z,13.12
2023-02-26T04:01:18.069Z,3.92
2023-02-26T04:02:17.097Z,10.70
2023-02-26T04:03:21.065Z,10.54
2023-02-26T04:04:17.110Z,10.94
2023-02-26T04:05:19.064Z,9.64
2023-02-26T04:06:11.065Z,15.34
2023-02-26T04:07:13.066Z,8.74
2023-02-26T04:08:11.060Z,11.48
2023-02-26T04:09:11.066Z,17.06
2023-02-26T04:10:11.067Z,6.62
2023-02-26T04:11:16.061Z,20.08
2023-02-26T04:12:11.064Z,7.10
2023-02-26T04:13:11.075Z,12.66
2023-02-26T04:14:11.063Z,9.30
2023-02-26T04:15:11.065Z,4.42
2023-02-26T04:16:11.065Z,17.18
2023-02-26T04:17:11.065Z,10.80
2023-02-26T04:18:11.071Z,10.50
2023-02-26T04:19:11.070Z,23.48
2023-02-26T04:20:14.064Z,8.80
2023-02-26T04:21:15.068Z,18.68
2023-02-26T04:22:11.073Z,13.30
2023-02-26T04:23:11.064Z,9.92
2023-02-26T04:24:11.064Z,9.52
2023-02-26T04:25:11.069Z,14.84
2023-02-26T04:26:11.075Z,3.58
2023-02-26T04:27:11.064Z,5.40
2023-02-26T04:28:11.070Z,9.10
2023-02-26T04:29:11.088Z,11.22
2023-02-26T04:30:11.064Z,8.96
2023-02-26T04:31:11.174Z,7.20
2023-02-26T04:32:11.206Z,19.18
2023-02-26T04:33:11.064Z,4.44
2023-02-26T04:34:11.063Z,6.54
2023-02-26T04:35:11.068Z,11.64
2023-02-26T04:36:11.063Z,13.24
2023-02-26T04:37:11.062Z,11.16
2023-02-26T04:38:11.060Z,5.70
2023-02-26T04:39:11.078Z,7.94
2023-02-26T04:40:11.060Z,15.94
2023-02-26T04:41:11.063Z,16.44
2023-02-26T04:42:11.060Z,15.70
2023-02-26T04:43:11.071Z,11.96
2023-02-26T04:44:11.069Z,13.66
2023-02-26T04:45:11.064Z,17.02
2023-02-26T04:46:11.113Z,8.76
2023-02-26T04:47:11.056Z,7.42
2023-02-26T04:48:11.065Z,13.60
2023-02-26T04:49:11.065Z,13.28
2023-02-26T04:50:11.062Z,11.66
2023-02-26T04:51:11.074Z,11.50
2023-02-26T04:52:11.084Z,6.80
2023-02-26T04:53:11.065Z,10.72
2023-02-26T04:54:11.072Z,6.28
2023-02-26T04:55:11.061Z,9.78
2023-02-26T04:56:11.063Z,7.98
2023-02-26T04:57:11.071Z,11.22
2023-02-26T04:58:11.065Z,13.06
2023-02-26T04:59:11.064Z,7.50
2023-02-26T05:00:12.062Z,4.74
2023-02-26T05:01:11.061Z,13.48
2023-02-26T05:02:11.066Z,17.00
2023-02-26T05:03:11.081Z,11.20
2023-02-26T05:04:11.151Z,8.32
2023-02-26T05:05:11.070Z,17.76
2023-02-26T05:06:11.073Z,18.86
2023-02-26T05:07:11.061Z,10.64
2023-02-26T05:08:11.064Z,3.94
2023-02-26T05:09:11.073Z,10.64
2023-02-26T05:10:12.062Z,5.68
2023-02-26T05:11:11.063Z,7.94
2023-02-26T05:12:11.078Z,5.60
2023-02-26T05:13:11.061Z,7.22
2023-02-26T05:14:11.069Z,14.58
2023-02-26T05:15:11.067Z,13.14
2023-02-26T05:16:11.149Z,5.24
2023-02-26T05:17:11.065Z,8.94
2023-02-26T05:18:11.066Z,8.48
2023-02-26T05:19:11.065Z,6.26
2023-02-26T05:20:11.064Z,7.10
2023-02-26T05:21:11.067Z,13.28
2023-02-26T05:22:11.063Z,13.40
2023-02-26T05:23:11.067Z,10.24
2023-02-26T05:24:11.072Z,16.04
2023-02-26T05:25:11.065Z,10.12
2023-02-26T05:26:11.065Z,7.10
2023-02-26T05:27:11.068Z,14.08
2023-02-26T05:28:11.066Z,7.96
2023-02-26T05:29:11.070Z,12.48
2023-02-26T05:30:11.068Z,15.48
2023-02-26T05:31:11.152Z,15.92
2023-02-26T05:32:11.130Z,10.08
2023-02-26T05:33:11.067Z,12.30
2023-02-26T05:34:11.070Z,8.76
2023-02-26T05:35:11.069Z,11.32
2023-02-26T05:36:11.066Z,12.54
2023-02-26T05:37:11.075Z,6.88
2023-02-26T05:38:11.076Z,11.48
2023-02-26T05:39:11.074Z,12.80
2023-02-26T05:40:11.092Z,14.06
2023-02-26T05:41:11.070Z,10.04
2023-02-26T05:42:11.067Z,16.60
2023-02-26T05:43:11.078Z,13.84
2023-02-26T05:44:11.075Z,10.52
2023-02-26T05:45:11.066Z,13.66
2023-02-26T05:46:11.105Z,5.36
2023-02-26T05:47:11.080Z,7.50
2023-02-26T05:48:11.093Z,15.94
2023-02-26T05:49:11.062Z,13.06
2023-02-26T05:50:11.078Z,12.14
2023-02-26T05:51:11.072Z,14.72
2023-02-26T05:52:11.067Z,11.98
2023-02-26T05:53:11.073Z,9.00
2023-02-26T05:54:11.075Z,16.58
2023-02-26T05:55:11.062Z,7.76
2023-02-26T05:56:11.070Z,9.76
2023-02-26T05:57:11.067Z,24.42
2023-02-26T05:58:11.070Z,14.52
2023-02-26T05:59:11.073Z,7.42
2023-02-26T06:00:11.062Z,20.18
2023-02-26T06:01:11.067Z,6.56
2023-02-26T06:02:11.101Z,10.26
2023-02-26T06:03:11.134Z,18.68
2023-02-26T06:04:11.066Z,9.52
2023-02-26T06:05:11.078Z,12.60
2023-02-26T06:06:11.125Z,15.12
2023-02-26T06:07:11.095Z,10.30
2023-02-26T06:08:11.090Z,10.54
2023-02-26T06:09:11.076Z,7.52
2023-02-26T06:10:11.066Z,10.16
2023-02-26T06:11:11.071Z,9.24
2023-02-26T06:12:11.063Z,8.92
2023-02-26T06:13:11.068Z,12.78
2023-02-26T06:14:11.070Z,9.34
2023-02-26T06:15:11.090Z,7.44
2023-02-26T06:16:11.119Z,10.08
2023-02-26T06:17:11.074Z,13.86
2023-02-26T06:18:11.062Z,8.90
2023-02-26T06:19:11.074Z,4.94
2023-02-26T06:20:11.073Z,29.38
2023-02-26T06:21:11.062Z,12.60
2023-02-26T06:22:11.074Z,10.66
2023-02-26T06:23:11.064Z,9.78
2023-02-26T06:24:11.065Z,7.28
2023-02-26T06:25:11.068Z,10.68
2023-02-26T06:26:11.063Z,3.52
2023-02-26T06:27:11.062Z,11.86
2023-02-26T06:28:11.064Z,13.18
2023-02-26T06:29:11.071Z,12.10
2023-02-26T06:30:11.066Z,16.90
2023-02-26T06:31:11.068Z,10.94
2023-02-26T06:32:11.153Z,11.72
2023-02-26T06:33:11.067Z,5.18
2023-02-26T06:34:11.071Z,11.86
2023-02-26T06:35:11.087Z,14.78
2023-02-26T06:36:11.068Z,11.58
2023-02-26T06:37:11.071Z,7.30
2023-02-26T06:38:11.077Z,14.56
2023-02-26T06:39:11.068Z,12.02
2023-02-26T06:40:11.078Z,12.60
2023-02-26T06:41:11.080Z,15.08
2023-02-26T06:42:11.070Z,13.56
2023-02-26T06:43:11.070Z,16.14
2023-02-26T06:44:11.079Z,15.00
2023-02-26T06:45:11.073Z,21.84
2023-02-26T06:46:11.145Z,11.68
2023-02-26T06:47:11.077Z,8.88
2023-02-26T06:48:11.076Z,11.68
2023-02-26T06:49:11.073Z,7.50
2023-02-26T06:50:11.076Z,12.70
2023-02-26T06:51:11.072Z,10.90
2023-02-26T06:52:11.075Z,7.62
2023-02-26T06:53:11.082Z,12.48
2023-02-26T06:54:11.072Z,13.68
2023-02-26T06:55:11.076Z,15.74
2023-02-26T06:56:11.080Z,10.00
2023-02-26T06:57:11.076Z,2.78
2023-02-26T06:58:11.076Z,11.76
2023-02-26T06:59:11.074Z,19.06
2023-02-26T07:00:11.127Z,13.44
2023-02-26T07:01:11.083Z,15.16
2023-02-26T07:02:18.145Z,10.28
2023-02-26T07:03:15.078Z,9.34
2023-02-26T07:04:11.070Z,13.04
2023-02-26T07:05:11.072Z,13.58
2023-02-26T07:06:26.448Z,13.22
2023-02-26T07:07:13.084Z,13.58
2023-02-26T07:08:11.075Z,6.80
2023-02-26T07:09:11.140Z,12.54
2023-02-26T07:10:11.065Z,24.36
2023-02-26T07:11:11.077Z,10.60
2023-02-26T07:12:11.069Z,8.88
2023-02-26T07:13:11.062Z,7.84
2023-02-26T07:14:11.071Z,9.36
2023-02-26T07:15:11.064Z,13.88
2023-02-26T07:16:11.066Z,13.68
2023-02-26T07:17:11.138Z,10.32
2023-02-26T07:18:11.064Z,11.68
2023-02-26T07:19:11.063Z,13.66
2023-02-26T07:20:13.065Z,10.54
2023-02-26T07:21:11.063Z,9.82
2023-02-26T07:22:11.063Z,13.74
2023-02-26T07:23:11.065Z,13.56
2023-02-26T07:24:11.062Z,9.14
2023-02-26T07:25:11.066Z,5.88
2023-02-26T07:26:11.064Z,18.98
2023-02-26T07:27:11.064Z,17.34
2023-02-26T07:28:11.075Z,9.80
2023-02-26T07:29:11.064Z,13.26
2023-02-26T07:30:11.067Z,16.38
2023-02-26T07:31:11.300Z,10.54
2023-02-26T07:32:11.095Z,9.10
2023-02-26T07:33:13.300Z,15.00
2023-02-26T07:34:11.072Z,13.36
2023-02-26T07:35:11.067Z,11.40
2023-02-26T07:36:11.061Z,8.84
2023-02-26T07:37:11.067Z,14.88
2023-02-26T07:38:11.063Z,10.30
2023-02-26T07:39:11.086Z,12.12
2023-02-26T07:40:11.066Z,13.58
2023-02-26T07:41:11.067Z,11.20
2023-02-26T07:42:11.060Z,7.62
2023-02-26T07:43:11.065Z,13.26
2023-02-26T07:44:11.066Z,9.66
2023-02-26T07:45:11.063Z,11.28
2023-02-26T07:46:11.101Z,16.26
2023-02-26T07:47:11.063Z,9.26
2023-02-26T07:48:11.057Z,16.10
2023-02-26T07:49:11.065Z,12.66
2023-02-26T07:50:11.060Z,22.20
2023-02-26T07:51:11.107Z,11.92
2023-02-26T07:52:11.060Z,9.28
2023-02-26T07:53:11.066Z,10.14
2023-02-26T07:54:11.059Z,10.20
2023-02-26T07:55:11.058Z,11.58
2023-02-26T07:56:11.059Z,19.98
2023-02-26T07:57:11.060Z,14.98
2023-02-26T07:58:11.061Z,12.32
2023-02-26T07:59:11.060Z,11.26
2023-02-26T08:00:11.061Z,18.72
2023-02-26T08:01:11.087Z,13.48
2023-02-26T08:02:11.065Z,21.72
2023-02-26T08:03:11.055Z,12.72
2023-02-26T08:04:11.088Z,13.10
2023-02-26T08:05:11.061Z,11.56
2023-02-26T08:06:11.061Z,14.56
2023-02-26T08:07:11.067Z,14.20
2023-02-26T08:08:11.060Z,19.16
2023-02-26T08:09:11.057Z,14.90
2023-02-26T08:10:11.084Z,17.16
2023-02-26T08:11:11.061Z,15.72
2023-02-26T08:12:11.063Z,9.74
2023-02-26T08:13:11.069Z,12.08
2023-02-26T08:14:11.070Z,9.18
2023-02-26T08:15:11.078Z,9.52
2023-02-26T08:16:11.138Z,17.60
2023-02-26T08:17:11.059Z,17.46
2023-02-26T08:18:11.060Z,14.90
2023-02-26T08:19:11.069Z,9.42
2023-02-26T08:20:11.058Z,17.00
2023-02-26T08:21:11.064Z,10.14
2023-02-26T08:22:11.071Z,15.34
2023-02-26T08:23:11.065Z,10.74
2023-02-26T08:24:11.071Z,14.08
2023-02-26T08:25:11.068Z,15.28
2023-02-26T08:26:11.065Z,14.20
2023-02-26T08:27:12.687Z,12.76
2023-02-26T08:28:11.063Z,9.08
2023-02-26T08:29:11.072Z,11.86
2023-02-26T08:30:11.096Z,11.62
2023-02-26T08:31:11.200Z,12.04
2023-02-26T08:32:11.238Z,10.98
2023-02-26T08:33:11.059Z,13.32
2023-02-26T08:34:11.063Z,13.00
2023-02-26T08:35:11.069Z,9.30
2023-02-26T08:36:11.082Z,11.82
2023-02-26T08:37:11.061Z,8.78
2023-02-26T08:38:11.060Z,8.68
2023-02-26T08:39:11.060Z,7.54
2023-02-26T08:40:12.032Z,14.50
2023-02-26T08:41:11.060Z,15.90
2023-02-26T08:42:11.070Z,10.42
2023-02-26T08:43:11.059Z,8.08
2023-02-26T08:44:11.064Z,8.06
2023-02-26T08:45:11.069Z,13.30
2023-02-26T08:46:11.080Z,7.00
2023-02-26T08:47:11.625Z,11.22
2023-02-26T08:48:11.067Z,20.96
2023-02-26T08:49:11.061Z,18.96
2023-02-26T08:50:11.080Z,15.80
2023-02-26T08:51:11.069Z,8.24
2023-02-26T08:52:11.062Z,15.16
2023-02-26T08:53:11.066Z,16.56
2023-02-26T08:54:11.092Z,14.98
2023-02-26T08:55:11.064Z,17.90
2023-02-26T08:56:11.073Z,16.82
2023-02-26T08:57:11.071Z,13.34
2023-02-26T08:58:11.066Z,9.42
2023-02-26T08:59:11.060Z,15.42
2023-02-26T09:00:14.072Z,15.44
2023-02-26T09:01:11.073Z,11.10
2023-02-26T09:02:12.120Z,9.54
2023-02-26T09:03:11.105Z,14.66
2023-02-26T09:04:11.067Z,11.22
2023-02-26T09:05:11.072Z,10.36
2023-02-26T09:06:11.067Z,18.54
2023-02-26T09:07:11.066Z,14.44
2023-02-26T09:08:11.066Z,14.64
2023-02-26T09:09:11.066Z,18.96
2023-02-26T09:10:11.073Z,13.46
2023-02-26T09:11:11.071Z,15.94
2023-02-26T09:12:11.066Z,15.42
2023-02-26T09:13:11.069Z,27.94
2023-02-26T09:14:11.067Z,14.04
2023-02-26T09:15:11.075Z,10.48
2023-02-26T09:16:11.133Z,14.88
2023-02-26T09:17:11.068Z,17.64
2023-02-26T09:18:11.068Z,9.96
2023-02-26T09:19:11.072Z,13.96
2023-02-26T09:20:11.064Z,14.52
2023-02-26T09:21:11.070Z,15.66
2023-02-26T09:22:11.073Z,13.66
2023-02-26T09:23:11.066Z,20.02
2023-02-26T09:24:11.067Z,18.68
2023-02-26T09:25:11.073Z,13.58
2023-02-26T09:26:12.076Z,11.46
2023-02-26T09:27:11.072Z,17.68
2023-02-26T09:28:11.110Z,12.96
2023-02-26T09:29:11.066Z,15.56
2023-02-26T09:30:11.092Z,14.96
2023-02-26T09:31:12.165Z,10.32
2023-02-26T09:32:12.238Z,13.18
2023-02-26T09:33:11.066Z,9.72
2023-02-26T09:34:11.609Z,11.08
2023-02-26T09:35:11.072Z,18.76
2023-02-26T09:36:11.065Z,8.92
2023-02-26T09:37:11.077Z,14.62
2023-02-26T09:38:11.068Z,14.34
2023-02-26T09:39:11.064Z,12.66
2023-02-26T09:40:19.068Z,16.48
2023-02-26T09:41:20.076Z,13.76
2023-02-26T09:42:19.067Z,12.60
2023-02-26T09:43:19.068Z,17.38
2023-02-26T09:44:21.095Z,6.34
2023-02-26T09:45:18.067Z,13.28
2023-02-26T09:46:21.080Z,14.08
2023-02-26T09:47:19.069Z,16.98
2023-02-26T09:48:14.063Z,12.74
2023-02-26T09:49:21.077Z,20.82
2023-02-26T09:50:18.076Z,10.30
2023-02-26T09:51:14.076Z,14.88
2023-02-26T09:52:21.070Z,15.66
2023-02-26T09:53:19.072Z,8.44
2023-02-26T09:54:16.070Z,15.42
2023-02-26T09:55:18.083Z,10.42
2023-02-26T09:56:17.072Z,8.42
2023-02-26T09:57:17.071Z,14.40
2023-02-26T09:58:19.078Z,12.50
2023-02-26T09:59:11.070Z,16.82
2023-02-26T10:00:19.074Z,8.96
2023-02-26T10:01:19.061Z,13.76
2023-02-26T10:02:21.061Z,21.48
2023-02-26T10:03:19.082Z,13.26
2023-02-26T10:04:20.617Z,8.72
2023-02-26T10:05:18.064Z,18.46
2023-02-26T10:06:21.067Z,9.10
2023-02-26T10:07:19.075Z,12.04
2023-02-26T10:08:18.065Z,19.68
2023-02-26T10:09:19.076Z,9.50
2023-02-26T10:10:19.068Z,12.14
2023-02-26T10:11:19.063Z,10.84
2023-02-26T10:12:19.060Z,11.20
2023-02-26T10:13:19.065Z,10.12
2023-02-26T10:14:21.075Z,7.80
2023-02-26T10:15:19.072Z,12.86
2023-02-26T10:16:15.124Z,9.88
2023-02-26T10:17:20.080Z,8.36
2023-02-26T10:18:16.076Z,17.72
2023-02-26T10:19:14.081Z,12.14
2023-02-26T10:20:17.102Z,15.04
2023-02-26T10:21:21.069Z,23.02
2023-02-26T10:22:21.069Z,10.62
2023-02-26T10:23:19.079Z,10.62
2023-02-26T10:24:18.072Z,18.48
2023-02-26T10:25:19.069Z,8.58
2023-02-26T10:26:19.067Z,8.44
2023-02-26T10:27:20.093Z,5.10
2023-02-26T10:28:19.068Z,10.94
2023-02-26T10:29:20.520Z,7.04
2023-02-26T10:30:24.081Z,9.86
2023-02-26T10:31:23.261Z,6.30
2023-02-26T10:32:23.175Z,14.10
2023-02-26T10:33:19.064Z,8.22
2023-02-26T10:34:21.077Z,10.42
2023-02-26T10:35:16.072Z,12.66
2023-02-26T10:36:19.063Z,10.22
2023-02-26T10:37:21.058Z,8.66
2023-02-26T10:38:17.061Z,11.06
2023-02-26T10:39:19.073Z,15.12
2023-02-26T10:40:19.148Z,11.00
2023-02-26T10:41:18.077Z,3.02
2023-02-26T10:42:19.057Z,14.70
2023-02-26T10:43:19.063Z,6.52
2023-02-26T10:44:18.070Z,14.24
2023-02-26T10:45:21.064Z,4.90
2023-02-26T10:46:19.103Z,8.04
2023-02-26T10:47:19.062Z,6.44
2023-02-26T10:48:19.071Z,9.66
2023-02-26T10:49:19.067Z,8.50
2023-02-26T10:50:15.060Z,5.72
2023-02-26T10:51:16.070Z,12.02
2023-02-26T10:52:15.060Z,12.30
2023-02-26T10:53:12.072Z,12.08
2023-02-26T10:54:19.062Z,14.16
2023-02-26T10:55:21.060Z,10.20
2023-02-26T10:56:17.064Z,10.40
2023-02-26T10:57:19.082Z,8.74
2023-02-26T10:58:17.061Z,21.56
2023-02-26T10:59:11.060Z,11.58
2023-02-26T11:00:16.074Z,12.20
2023-02-26T11:01:17.160Z,7.60
2023-02-26T11:02:21.088Z,9.52
2023-02-26T11:03:16.069Z,15.76
2023-02-26T11:04:16.069Z,6.82
2023-02-26T11:05:19.069Z,9.70
2023-02-26T11:06:13.063Z,15.88
2023-02-26T11:07:11.070Z,14.06
2023-02-26T11:08:21.073Z,7.08
2023-02-26T11:09:19.069Z,11.66
2023-02-26T11:10:19.067Z,10.00
2023-02-26T11:11:11.075Z,10.98
2023-02-26T11:12:17.072Z,13.98
2023-02-26T11:13:11.080Z,11.98
2023-02-26T11:14:11.066Z,6.34
2023-02-26T11:15:17.067Z,13.96
2023-02-26T11:16:15.129Z,6.42
2023-02-26T11:17:18.069Z,22.88
2023-02-26T11:18:15.069Z,8.34
2023-02-26T11:19:13.069Z,5.64
2023-02-26T11:20:17.072Z,4.94
2023-02-26T11:21:15.070Z,8.92
2023-02-26T11:22:15.067Z,17.34
2023-02-26T11:23:15.076Z,15.28
2023-02-26T11:24:17.082Z,16.48
2023-02-26T11:25:16.071Z,10.70
2023-02-26T11:26:16.075Z,9.24
2023-02-26T11:27:17.086Z,11.80
2023-02-26T11:28:19.072Z,15.92
2023-02-26T11:29:21.072Z,14.04
2023-02-26T11:30:21.089Z,7.34
2023-02-26T11:31:12.190Z,10.34
2023-02-26T11:32:18.169Z,10.06
2023-02-26T11:33:18.078Z,6.16
2023-02-26T11:34:11.071Z,11.88
2023-02-26T11:35:13.073Z,8.30
2023-02-26T11:36:13.098Z,14.10
2023-02-26T11:37:11.081Z,11.40
2023-02-26T11:38:17.268Z,10.64
2023-02-26T11:39:16.091Z,11.60
2023-02-26T11:40:18.077Z,12.98
2023-02-26T11:41:11.072Z,7.52
2023-02-26T11:42:12.073Z,14.24
2023-02-26T11:43:17.075Z,12.68
2023-02-26T11:44:12.073Z,14.76
2023-02-26T11:45:14.073Z,9.94
2023-02-26T11:46:11.131Z,11.46
2023-02-26T11:47:20.082Z,6.44
2023-02-26T11:48:18.068Z,5.34
2023-02-26T11:49:11.072Z,10.02
2023-02-26T11:50:20.087Z,10.04
2023-02-26T11:51:13.072Z,10.40
2023-02-26T11:52:19.075Z,18.54
2023-02-26T11:53:18.075Z,7.60
2023-02-26T11:54:19.074Z,13.76
2023-02-26T11:55:19.083Z,7.84
2023-02-26T11:56:14.087Z,8.36
2023-02-26T11:57:18.072Z,10.28
2023-02-26T11:58:18.072Z,8.96
2023-02-26T11:59:18.069Z,17.46
2023-02-26T12:00:19.065Z,7.70
2023-02-26T12:01:12.070Z,8.76
2023-02-26T12:02:13.149Z,7.54
2023-02-26T12:03:16.067Z,8.92
2023-02-26T12:04:12.077Z,7.92
2023-02-26T12:05:15.077Z,6.64
2023-02-26T12:06:18.086Z,8.08
2023-02-26T12:07:13.073Z,6.88
2023-02-26T12:08:17.069Z,10.06
2023-02-26T12:09:15.085Z,19.86
2023-02-26T12:10:17.072Z,4.76
2023-02-26T12:11:21.069Z,15.50
2023-02-26T12:12:20.083Z,7.92
2023-02-26T12:13:21.073Z,7.78
2023-02-26T12:14:19.087Z,6.76
2023-02-26T12:15:19.070Z,8.84
2023-02-26T12:16:19.150Z,6.56
2023-02-26T12:17:21.071Z,7.16
2023-02-26T12:18:19.068Z,9.64
2023-02-26T12:19:21.078Z,11.28
2023-02-26T12:20:24.071Z,8.14
2023-02-26T12:21:19.070Z,12.68
2023-02-26T12:22:19.067Z,4.00
2023-02-26T12:23:19.104Z,9.76
2023-02-26T12:24:19.071Z,11.42
2023-02-26T12:25:21.121Z,8.56
2023-02-26T12:26:19.084Z,8.20
2023-02-26T12:27:19.067Z,7.46
2023-02-26T12:28:19.066Z,12.54
2023-02-26T12:29:19.069Z,11.34
2023-02-26T12:30:19.084Z,8.12
2023-02-26T12:31:19.202Z,12.88
2023-02-26T12:32:21.239Z,5.06
2023-02-26T12:33:21.076Z,5.38
2023-02-26T12:34:23.081Z,9.14
2023-02-26T12:35:19.094Z,5.40
2023-02-26T12:36:21.076Z,16.12
2023-02-26T12:37:21.077Z,5.48
2023-02-26T12:38:18.071Z,4.10
2023-02-26T12:39:19.074Z,11.16
2023-02-26T12:40:19.088Z,20.04
2023-02-26T12:41:19.093Z,4.50
2023-02-26T12:42:23.077Z,4.18
2023-02-26T12:43:21.071Z,5.20
2023-02-26T12:44:19.076Z,12.60
2023-02-26T12:45:23.085Z,2.68
2023-02-26T12:46:21.098Z,4.08
2023-02-26T12:47:19.078Z,11.14
2023-02-26T12:48:19.074Z,8.14
2023-02-26T12:49:21.073Z,8.08
2023-02-26T12:50:20.106Z,4.78
2023-02-26T12:51:19.079Z,9.26
2023-02-26T12:52:19.080Z,11.08
2023-02-26T12:53:21.081Z,11.42
2023-02-26T12:54:23.078Z,13.60
2023-02-26T12:55:19.105Z,10.48
2023-02-26T12:56:19.079Z,7.58
2023-02-26T12:57:19.086Z,10.98
2023-02-26T12:58:21.079Z,8.58
2023-02-26T12:59:19.078Z,9.36
2023-02-26T13:00:21.079Z,9.94
2023-02-26T13:01:21.069Z,6.54